Time;durP1;ratioP1;P1;durP2;ratioP2;P2;SDS_P1;SDS_P2;PMS_P1;PMS_P2;Temp;Humidity;BMP_temperature;BMP_pressure;BME280_temperature;BME280_humidity;BME280_pressure;Samples;Min_cycle;Max_cycle;Signal;HPM_P1;HPM_P2
2021/08/21 00:00:51;;;;;;;5.50;5.00;;;16.60;99.90;;;;;;5007319;28;20400;-82
2021/08/21 00:03:16;;;;;;;7.03;5.67;;;16.30;99.90;;;;;;5023654;28;20181;-82
2021/08/21 00:05:42;;;;;;;5.70;5.10;;;16.30;99.90;;;;;;5023764;28;20611;-82
2021/08/21 00:08:07;;;;;;;7.83;5.03;;;16.00;99.90;;;;;;5007701;28;20232;-82
2021/08/21 00:10:33;;;;;;;6.37;4.73;;;15.70;99.90;;;;;;5024320;28;20161;-82
2021/08/21 00:13:00;;;;;;;5.20;4.70;;;15.60;99.90;;;;;;5023889;28;20177;-82
2021/08/21 00:15:26;;;;;;;4.77;4.03;;;15.60;99.90;;;;;;5023823;28;20424;-82
2021/08/21 00:17:52;;;;;;;5.67;5.00;;;15.50;99.90;;;;;;5008025;28;20420;-83
2021/08/21 00:20:18;;;;;;;6.37;5.60;;;15.50;99.90;;;;;;5023801;28;20406;-83
2021/08/21 00:22:43;;;;;;;4.83;4.43;;;15.40;99.90;;;;;;5023433;28;20208;-83
2021/08/21 00:25:10;;;;;;;4.13;3.80;;;15.40;99.90;;;;;;5023278;28;20405;-82
2021/08/21 00:27:36;;;;;;;5.93;5.43;;;15.40;99.90;;;;;;5023107;28;20193;-82
2021/08/21 00:30:02;;;;;;;4.63;4.13;;;15.40;99.90;;;;;;5043414;28;20410;-82
2021/08/21 00:32:27;;;;;;;6.10;5.60;;;15.30;99.90;;;;;;5045543;28;20160;-82
2021/08/21 00:34:53;;;;;;;7.00;5.77;;;15.30;99.90;;;;;;5044233;28;20396;-82
2021/08/21 00:37:18;;;;;;;17.23;5.90;;;15.40;99.90;;;;;;5044313;28;20165;-82
2021/08/21 00:39:44;;;;;;;7.80;5.10;;;15.40;99.90;;;;;;5044885;28;20169;-82
2021/08/21 00:42:10;;;;;;;5.60;4.60;;;15.30;99.90;;;;;;5044901;28;20156;-83
2021/08/21 00:44:37;;;;;;;5.57;5.03;;;15.20;99.90;;;;;;5044464;28;20218;-82
2021/08/21 00:47:10;;;;;;;6.27;5.67;;;15.20;99.90;;;;;;5043797;28;20454;-83
2021/08/21 00:49:38;;;;;;;6.73;6.13;;;15.10;99.90;;;;;;5044489;28;20403;-83
2021/08/21 00:52:06;;;;;;;7.73;4.97;;;15.20;99.90;;;;;;5044369;28;20423;-83
2021/08/21 00:54:32;;;;;;;4.83;4.27;;;15.20;99.90;;;;;;5044315;28;20404;-82
2021/08/21 00:57:00;;;;;;;7.10;5.53;;;15.20;99.90;;;;;;5045471;28;20422;-82
2021/08/21 00:59:27;;;;;;;8.23;6.17;;;15.40;99.90;;;;;;5044927;28;20403;-82
2021/08/21 01:01:53;;;;;;;4.70;4.30;;;15.40;99.90;;;;;;5044581;28;20402;-82
2021/08/21 01:04:19;;;;;;;5.20;4.70;;;15.40;99.90;;;;;;5044903;28;20396;-83
2021/08/21 01:06:45;;;;;;;5.50;4.47;;;15.30;99.90;;;;;;5045196;28;20443;-83
2021/08/21 01:09:10;;;;;;;4.70;4.27;;;15.30;99.90;;;;;;5045103;28;20192;-82
2021/08/21 01:11:36;;;;;;;7.57;5.23;;;15.30;99.90;;;;;;5046152;28;20415;-83
2021/08/21 01:14:03;;;;;;;8.63;5.13;;;15.30;99.90;;;;;;5045608;28;20157;-82
2021/08/21 01:16:28;;;;;;;5.50;4.63;;;15.30;99.90;;;;;;5044971;28;20165;-82
2021/08/21 01:18:54;;;;;;;5.10;4.60;;;15.20;99.90;;;;;;5045227;28;20423;-83
2021/08/21 01:21:20;;;;;;;5.10;4.70;;;15.10;99.90;;;;;;5045510;28;20237;-83
2021/08/21 01:23:46;;;;;;;5.20;4.70;;;15.10;99.90;;;;;;5045409;28;20658;-83
2021/08/21 01:26:12;;;;;;;5.33;4.30;;;15.20;99.90;;;;;;5045646;28;20439;-83
2021/08/21 01:28:38;;;;;;;6.33;4.67;;;15.00;99.90;;;;;;5046112;28;20172;-83
2021/08/21 01:31:05;;;;;;;4.90;4.20;;;15.00;99.90;;;;;;5043697;28;20485;-83
2021/08/21 01:33:33;;;;;;;5.17;4.70;;;14.80;99.90;;;;;;5045410;28;20517;-83
2021/08/21 01:35:58;;;;;;;4.33;3.93;;;14.60;99.90;;;;;;5045293;28;20395;-82
2021/08/21 01:38:24;;;;;;;7.90;4.17;;;14.70;99.90;;;;;;5043688;28;20508;-83
2021/08/21 01:40:51;;;;;;;5.03;4.60;;;14.80;99.90;;;;;;5045728;28;20194;-83
2021/08/21 01:43:20;;;;;;;5.17;4.77;;;14.90;99.90;;;;;;5046968;28;20176;-83
2021/08/21 01:45:46;;;;;;;4.07;3.40;;;14.80;99.90;;;;;;5048630;28;20400;-81
2021/08/21 01:48:12;;;;;;;6.70;4.53;;;14.70;99.90;;;;;;5043989;28;20398;-82
2021/08/21 01:50:38;;;;;;;5.20;4.70;;;14.70;99.90;;;;;;5044119;28;20215;-81
2021/08/21 01:53:09;;;;;;;4.40;4.07;;;14.70;99.90;;;;;;5043096;28;20416;-81
2021/08/21 01:55:34;;;;;;;6.23;5.63;;;14.70;99.90;;;;;;5044159;28;20893;-82
2021/08/21 01:58:00;;;;;;;5.20;4.80;;;14.60;99.90;;;;;;5043323;28;20453;-82
2021/08/21 02:00:28;;;;;;;4.53;4.13;;;14.50;99.90;;;;;;5043311;28;20157;-82
2021/08/21 02:02:55;;;;;;;4.97;4.57;;;14.60;99.90;;;;;;5044001;28;20161;-81
2021/08/21 02:05:21;;;;;;;4.93;4.40;;;14.70;99.90;;;;;;5043537;28;20395;-82
2021/08/21 02:07:48;;;;;;;4.60;4.20;;;14.80;99.90;;;;;;5042867;28;20439;-81
2021/08/21 02:10:14;;;;;;;5.73;4.20;;;14.80;99.90;;;;;;5043210;28;20748;-82
2021/08/21 02:12:40;;;;;;;5.80;5.30;;;14.90;99.90;;;;;;5044226;28;20395;-82
2021/08/21 02:15:09;;;;;;;5.47;4.73;;;15.20;99.90;;;;;;5047567;28;20826;-82
2021/08/21 02:17:35;;;;;;;10.23;5.93;;;15.50;99.90;;;;;;5046897;28;20169;-82
2021/08/21 02:20:00;;;;;;;5.87;4.90;;;15.70;99.90;;;;;;5047370;28;20898;-82
2021/08/21 02:22:26;;;;;;;7.70;5.20;;;15.80;99.90;;;;;;5047484;28;20266;-82
2021/08/21 02:24:52;;;;;;;5.73;5.10;;;15.90;99.90;;;;;;5046733;28;20171;-81
2021/08/21 02:27:22;;;;;;;4.50;4.10;;;16.00;99.90;;;;;;5046608;28;20195;-82
2021/08/21 02:29:49;;;;;;;4.67;4.20;;;16.10;99.90;;;;;;5045672;28;20164;-83
2021/08/21 02:32:14;;;;;;;6.17;4.93;;;16.10;99.90;;;;;;5046274;28;20402;-82
2021/08/21 02:34:40;;;;;;;9.33;5.87;;;16.10;99.90;;;;;;5046534;28;20396;-82
2021/08/21 02:37:06;;;;;;;5.70;4.20;;;16.10;99.90;;;;;;5045863;28;20161;-82
2021/08/21 02:39:32;;;;;;;4.77;4.40;;;16.20;99.90;;;;;;5046717;28;20169;-80
2021/08/21 02:41:57;;;;;;;5.07;4.67;;;16.20;99.90;;;;;;5046242;28;20410;-80
2021/08/21 02:44:23;;;;;;;6.33;5.73;;;16.20;99.90;;;;;;5045846;28;20482;-83
2021/08/21 02:46:48;;;;;;;5.33;4.80;;;16.20;99.90;;;;;;5046169;28;20237;-81
2021/08/21 02:49:16;;;;;;;8.20;5.00;;;16.20;99.90;;;;;;5046384;28;20156;-82
2021/08/21 02:51:42;;;;;;;6.60;5.20;;;16.10;99.90;;;;;;5045400;28;20478;-82
2021/08/21 02:54:08;;;;;;;5.07;4.53;;;16.10;99.90;;;;;;5046156;28;20402;-82
2021/08/21 02:56:33;;;;;;;5.77;5.27;;;16.10;99.90;;;;;;5046521;28;20192;-81
2021/08/21 02:58:59;;;;;;;6.03;5.10;;;16.20;99.90;;;;;;5046542;28;20168;-81
2021/08/21 03:01:25;;;;;;;7.10;4.97;;;16.20;99.90;;;;;;5045473;28;20255;-80
2021/08/21 03:03:51;;;;;;;5.50;5.10;;;16.10;99.90;;;;;;5045700;28;20219;-82
2021/08/21 03:06:16;;;;;;;6.63;5.03;;;16.10;99.90;;;;;;5045961;28;20825;-80
2021/08/21 03:08:42;;;;;;;10.83;5.50;;;16.00;99.90;;;;;;5045306;28;20196;-82
2021/08/21 03:11:07;;;;;;;5.60;5.10;;;16.00;99.90;;;;;;5046051;28;20183;-83
2021/08/21 03:13:33;;;;;;;6.03;5.43;;;16.00;99.90;;;;;;5046234;28;20161;-82
2021/08/21 03:15:58;;;;;;;8.20;5.83;;;15.90;99.90;;;;;;5045614;28;20252;-81
2021/08/21 03:18:24;;;;;;;6.07;5.47;;;15.90;99.90;;;;;;5045840;28;20195;-80
2021/08/21 03:20:49;;;;;;;12.10;6.90;;;15.90;99.90;;;;;;5045580;28;20598;-80
2021/08/21 03:23:15;;;;;;;6.63;5.97;;;16.00;99.90;;;;;;5044893;28;20489;-82
2021/08/21 03:25:40;;;;;;;5.73;5.23;;;15.90;99.90;;;;;;5044765;28;20173;-81
2021/08/21 03:28:06;;;;;;;6.07;5.50;;;15.90;99.90;;;;;;5046247;28;20167;-83
2021/08/21 03:30:31;;;;;;;6.70;6.07;;;15.80;99.90;;;;;;5045973;28;20164;-82
2021/08/21 03:32:57;;;;;;;6.60;6.00;;;15.80;99.90;;;;;;5045733;28;20591;-82
2021/08/21 03:35:22;;;;;;;9.97;6.17;;;15.90;99.90;;;;;;5046210;28;20165;-82
2021/08/21 03:37:48;;;;;;;5.87;5.07;;;15.90;99.90;;;;;;5046718;28;20232;-82
2021/08/21 03:40:13;;;;;;;8.07;6.40;;;15.90;99.90;;;;;;5046420;28;20165;-82
2021/08/21 03:42:39;;;;;;;9.23;5.80;;;15.90;99.90;;;;;;5046069;28;20671;-82
2021/08/21 03:45:05;;;;;;;6.43;5.83;;;15.80;99.90;;;;;;5046269;28;20227;-82
2021/08/21 03:47:31;;;;;;;6.20;5.27;;;15.80;99.90;;;;;;5045728;28;20204;-82
2021/08/21 03:49:56;;;;;;;7.40;6.57;;;15.40;99.90;;;;;;5044418;28;20413;-82
2021/08/21 03:52:22;;;;;;;6.10;5.33;;;15.40;99.90;;;;;;5044404;28;20190;-81
2021/08/21 03:54:47;;;;;;;6.10;5.50;;;15.40;99.90;;;;;;5045090;28;20191;-83
2021/08/21 03:57:13;;;;;;;8.60;7.17;;;15.50;99.90;;;;;;5045367;28;20207;-80
2021/08/21 03:59:38;;;;;;;6.63;6.10;;;15.50;99.90;;;;;;5043529;28;20237;-80
2021/08/21 04:02:04;;;;;;;7.50;6.50;;;15.40;99.90;;;;;;5045141;28;20168;-82
2021/08/21 04:04:29;;;;;;;6.67;6.17;;;15.30;99.90;;;;;;5046170;28;20463;-81
2021/08/21 04:06:55;;;;;;;8.47;5.63;;;15.20;99.90;;;;;;5045849;28;20219;-81
2021/08/21 04:09:20;;;;;;;7.37;6.67;;;15.40;99.90;;;;;;5046092;28;20207;-81
2021/08/21 04:11:46;;;;;;;5.93;5.33;;;15.60;99.90;;;;;;5045649;28;20169;-82
2021/08/21 04:14:11;;;;;;;7.50;6.77;;;15.70;99.90;;;;;;5045501;28;20169;-80
2021/08/21 04:16:37;;;;;;;13.73;6.87;;;15.70;99.90;;;;;;5045643;28;20243;-79
2021/08/21 04:19:03;;;;;;;9.20;6.70;;;15.70;99.90;;;;;;5050828;28;20215;-79
2021/08/21 04:21:28;;;;;;;6.40;5.80;;;15.80;99.90;;;;;;5049273;28;20240;-82
2021/08/21 04:23:54;;;;;;;10.23;6.47;;;15.70;99.90;;;;;;5047343;28;20168;-82
2021/08/21 04:26:20;;;;;;;7.07;6.17;;;15.50;99.90;;;;;;5046801;28;20192;-82
2021/08/21 04:28:46;;;;;;;7.10;6.37;;;15.30;99.90;;;;;;5046716;28;20165;-82
2021/08/21 04:31:11;;;;;;;6.80;6.10;;;15.40;99.90;;;;;;5047014;28;20442;-82
2021/08/21 04:33:37;;;;;;;9.10;6.97;;;15.40;99.90;;;;;;5047153;28;20153;-82
2021/08/21 04:36:02;;;;;;;6.23;5.60;;;15.50;99.90;;;;;;5046350;28;20179;-82
2021/08/21 04:38:28;;;;;;;7.13;6.43;;;15.60;99.90;;;;;;5044926;28;20232;-81
2021/08/21 04:40:53;;;;;;;7.17;6.47;;;15.60;99.90;;;;;;5045742;28;20161;-80
2021/08/21 04:43:19;;;;;;;9.93;7.20;;;15.50;99.90;;;;;;5045225;28;20183;-82
2021/08/21 04:45:45;;;;;;;7.10;6.00;;;15.50;99.90;;;;;;5043865;28;20165;-82
2021/08/21 04:48:11;;;;;;;8.13;6.83;;;15.60;99.90;;;;;;5045585;28;20191;-80
2021/08/21 04:50:39;;;;;;;7.97;5.73;;;15.70;99.90;;;;;;5045773;28;20199;-82
2021/08/21 04:53:06;;;;;;;5.83;5.23;;;15.70;99.90;;;;;;4971901;29;20176;-80
2021/08/21 04:55:33;;;;;;;6.60;4.97;;;15.70;99.90;;;;;;4971006;29;20470;-83
2021/08/21 04:57:59;;;;;;;7.37;5.97;;;15.80;99.90;;;;;;4950931;29;20414;-82
2021/08/21 05:00:25;;;;;;;8.03;6.40;;;15.80;99.90;;;;;;4949766;29;20411;-83
2021/08/21 05:02:53;;;;;;;6.87;6.23;;;15.80;99.90;;;;;;4965078;29;20411;-83
2021/08/21 05:05:19;;;;;;;6.20;5.60;;;15.80;99.90;;;;;;4965069;29;20542;-83
2021/08/21 05:07:45;;;;;;;6.73;6.00;;;15.80;99.90;;;;;;4965208;29;20620;-82
2021/08/21 05:10:12;;;;;;;9.63;6.03;;;15.90;99.90;;;;;;4965492;29;20416;-82
2021/08/21 05:12:38;;;;;;;9.50;6.03;;;15.90;99.90;;;;;;4965197;29;20427;-82
2021/08/21 05:15:04;;;;;;;12.20;7.43;;;15.90;99.90;;;;;;4965339;29;20414;-82
2021/08/21 05:17:29;;;;;;;7.00;6.30;;;15.90;99.90;;;;;;4981978;28;20190;-81
2021/08/21 05:19:55;;;;;;;6.60;5.97;;;15.90;99.90;;;;;;5004171;28;20204;-82
2021/08/21 05:22:24;;;;;;;6.13;5.43;;;15.90;99.90;;;;;;5003598;28;20169;-82
2021/08/21 05:24:50;;;;;;;12.00;6.33;;;15.90;99.90;;;;;;5019992;28;20201;-81
2021/08/21 05:27:17;;;;;;;14.67;5.97;;;15.90;99.90;;;;;;5023111;28;21039;-81
2021/08/21 05:29:45;;;;;;;7.13;6.30;;;16.00;99.90;;;;;;5027053;28;20185;-83
2021/08/21 05:32:12;;;;;;;7.63;5.60;;;16.10;99.90;;;;;;5045424;28;20392;-81
2021/08/21 05:34:37;;;;;;;5.50;5.00;;;16.00;99.90;;;;;;5044874;28;20391;-82
2021/08/21 05:37:03;;;;;;;5.67;5.03;;;16.10;99.90;;;;;;5044438;28;20409;-82
2021/08/21 05:39:31;;;;;;;6.77;5.37;;;16.20;99.90;;;;;;5043657;28;20247;-83
2021/08/21 05:42:00;;;;;;;6.47;5.27;;;16.20;99.90;;;;;;5044116;28;20176;-80
2021/08/21 05:44:27;;;;;;;5.47;4.97;;;16.20;99.90;;;;;;5046316;28;20395;-83
2021/08/21 05:46:52;;;;;;;6.67;5.97;;;16.20;99.90;;;;;;5044039;28;20458;-83
2021/08/21 05:49:18;;;;;;;7.90;5.93;;;16.00;99.90;;;;;;5044688;28;20396;-83
2021/08/21 05:51:43;;;;;;;6.50;5.80;;;16.00;99.90;;;;;;5045294;28;20159;-80
2021/08/21 05:54:09;;;;;;;7.10;5.23;;;16.10;99.90;;;;;;5044570;28;20153;-81
2021/08/21 05:56:34;;;;;;;8.40;6.50;;;16.20;99.90;;;;;;5045135;28;20245;-82
2021/08/21 05:59:00;;;;;;;8.40;6.10;;;16.20;99.90;;;;;;5044698;28;20260;-82
2021/08/21 06:01:25;;;;;;;6.40;5.80;;;16.40;99.90;;;;;;5045064;28;20168;-82
2021/08/21 06:03:51;;;;;;;12.13;5.80;;;16.30;99.90;;;;;;5043992;28;20172;-81
2021/08/21 06:06:19;;;;;;;8.70;6.80;;;16.10;99.90;;;;;;5043844;28;20197;-83
2021/08/21 06:08:45;;;;;;;7.43;6.40;;;16.30;99.90;;;;;;5044609;28;20498;-83
2021/08/21 06:11:11;;;;;;;7.23;6.53;;;16.50;99.90;;;;;;5045030;28;20421;-83
2021/08/21 06:13:36;;;;;;;8.53;6.50;;;16.60;99.90;;;;;;5045183;28;20396;-83
2021/08/21 06:16:02;;;;;;;7.20;6.50;;;16.50;99.90;;;;;;5045483;28;20165;-83
2021/08/21 06:18:27;;;;;;;9.33;6.83;;;16.30;99.90;;;;;;5045733;28;20233;-83
2021/08/21 06:20:53;;;;;;;9.27;6.80;;;16.40;99.90;;;;;;5045128;28;20165;-83
2021/08/21 06:23:19;;;;;;;13.97;7.40;;;16.60;99.90;;;;;;5045840;28;20160;-83
2021/08/21 06:25:44;;;;;;;8.90;6.23;;;16.60;99.90;;;;;;5045054;28;20256;-82
2021/08/21 06:28:09;;;;;;;7.53;6.73;;;16.70;99.90;;;;;;5045493;28;20191;-83
2021/08/21 06:30:35;;;;;;;7.70;6.27;;;16.70;99.90;;;;;;5045305;28;20185;-83
2021/08/21 06:33:01;;;;;;;7.43;6.70;;;16.80;99.90;;;;;;5045862;28;20202;-83
2021/08/21 06:35:26;;;;;;;7.60;6.97;;;16.90;99.90;;;;;;5045180;28;20251;-83
2021/08/21 06:37:52;;;;;;;7.13;6.40;;;17.00;99.90;;;;;;5048942;28;20224;-80
2021/08/21 06:40:17;;;;;;;8.27;6.57;;;17.10;99.90;;;;;;5045950;28;20161;-83
2021/08/21 06:42:43;;;;;;;7.83;6.93;;;17.40;99.90;;;;;;5045369;28;20550;-83
2021/08/21 06:45:09;;;;;;;8.20;7.13;;;17.40;99.90;;;;;;5045121;28;20157;-82
2021/08/21 06:47:35;;;;;;;7.60;6.43;;;17.30;99.90;;;;;;5029726;28;20286;-82
2021/08/21 06:50:01;;;;;;;7.20;6.00;;;17.20;99.90;;;;;;5046442;28;20490;-81
2021/08/21 06:52:27;;;;;;;6.60;5.80;;;17.10;99.90;;;;;;5040960;28;20173;-80
2021/08/21 06:54:52;;;;;;;5.90;5.30;;;17.10;99.90;;;;;;5043225;28;20480;-82
2021/08/21 06:57:18;;;;;;;13.33;6.30;;;17.10;99.90;;;;;;5043566;28;20675;-80
2021/08/21 06:59:43;;;;;;;9.60;6.33;;;17.50;99.90;;;;;;5044991;28;20169;-81
2021/08/21 07:02:09;;;;;;;6.53;5.93;;;17.70;99.90;;;;;;5046703;28;20555;-82
2021/08/21 07:04:34;;;;;;;5.73;5.23;;;17.40;99.90;;;;;;5046697;28;20157;-82
2021/08/21 07:07:00;;;;;;;8.27;6.97;;;17.70;99.90;;;;;;5047609;28;20652;-83
2021/08/21 07:09:25;;;;;;;6.67;5.97;;;17.90;99.90;;;;;;5047132;28;20227;-81
2021/08/21 07:11:51;;;;;;;8.00;5.60;;;17.60;99.90;;;;;;5028548;28;20164;-80
2021/08/21 07:14:16;;;;;;;6.70;5.83;;;17.80;99.90;;;;;;5046727;28;20161;-82
2021/08/21 07:16:42;;;;;;;7.60;5.90;;;17.60;99.90;;;;;;5045818;28;20188;-81
2021/08/21 07:19:07;;;;;;;7.30;5.90;;;17.80;99.90;;;;;;5044409;28;20171;-82
2021/08/21 07:21:34;;;;;;;6.70;5.87;;;17.70;99.90;;;;;;5045206;28;20175;-81
2021/08/21 07:24:00;;;;;;;5.77;5.27;;;17.60;99.90;;;;;;5045191;28;20245;-82
2021/08/21 07:26:25;;;;;;;6.70;6.20;;;17.60;99.90;;;;;;5046673;28;20496;-83
2021/08/21 07:28:51;;;;;;;7.37;6.60;;;17.50;99.90;;;;;;5045844;28;20161;-83
2021/08/21 07:31:17;;;;;;;6.23;5.73;;;17.90;99.90;;;;;;5046240;28;20161;-82
2021/08/21 07:33:43;;;;;;;8.83;6.50;;;18.10;99.90;;;;;;5046504;28;20160;-83
2021/08/21 07:36:09;;;;;;;5.63;5.13;;;18.20;99.90;;;;;;5045168;28;20400;-81
2021/08/21 07:38:34;;;;;;;6.40;5.43;;;18.30;99.90;;;;;;5045739;28;20455;-83
2021/08/21 07:41:00;;;;;;;5.83;5.27;;;18.40;99.90;;;;;;5046106;28;20180;-81
2021/08/21 07:43:26;;;;;;;6.53;5.90;;;18.40;99.90;;;;;;5046184;28;20169;-81
2021/08/21 07:45:51;;;;;;;8.07;5.87;;;18.50;99.90;;;;;;5045474;28;20164;-81
2021/08/21 07:48:18;;;;;;;6.00;5.50;;;19.00;99.90;;;;;;5045891;28;20574;-81
2021/08/21 07:50:44;;;;;;;8.90;5.80;;;19.10;99.90;;;;;;5045416;28;20235;-82
2021/08/21 07:53:10;;;;;;;6.20;5.00;;;19.10;99.90;;;;;;5046559;28;20494;-82
2021/08/21 07:55:36;;;;;;;7.03;5.43;;;19.10;99.90;;;;;;5046041;28;20396;-83
2021/08/21 07:58:03;;;;;;;10.40;5.10;;;19.40;99.90;;;;;;5045942;28;20157;-80
2021/08/21 08:00:29;;;;;;;6.60;6.00;;;19.60;99.90;;;;;;5046123;28;20399;-82
2021/08/21 08:02:54;;;;;;;5.70;4.83;;;19.60;99.90;;;;;;5045582;28;20465;-82
2021/08/21 08:05:20;;;;;;;6.47;5.87;;;19.60;99.90;;;;;;5045984;28;20205;-82
2021/08/21 08:07:45;;;;;;;7.03;6.33;;;19.80;99.90;;;;;;5045857;28;20204;-83
2021/08/21 08:10:11;;;;;;;8.63;5.43;;;19.60;99.90;;;;;;5045550;28;20177;-81
2021/08/21 08:12:36;;;;;;;12.67;6.00;;;19.80;99.90;;;;;;5045249;28;20187;-82
2021/08/21 08:15:02;;;;;;;6.47;5.43;;;19.70;99.90;;;;;;5045370;28;20276;-81
2021/08/21 08:17:28;;;;;;;6.67;5.47;;;19.60;99.90;;;;;;5027084;28;20172;-82
2021/08/21 08:19:53;;;;;;;8.10;5.60;;;19.50;99.90;;;;;;5044795;28;20400;-82
2021/08/21 08:22:19;;;;;;;7.60;5.63;;;19.50;99.90;;;;;;5043959;28;20195;-83
2021/08/21 08:24:46;;;;;;;5.13;4.60;;;19.80;99.90;;;;;;5044388;28;20640;-83
2021/08/21 08:27:13;;;;;;;6.20;5.60;;;20.20;99.90;;;;;;5042638;28;20935;-82
2021/08/21 08:29:39;;;;;;;6.10;4.73;;;20.30;99.90;;;;;;5045144;28;20457;-83
2021/08/21 08:32:05;;;;;;;6.10;5.50;;;20.10;99.90;;;;;;5044625;28;20400;-82
2021/08/21 08:34:30;;;;;;;5.63;5.10;;;20.40;99.90;;;;;;5044226;28;20168;-82
2021/08/21 08:36:55;;;;;;;6.70;4.43;;;20.40;99.90;;;;;;5046563;28;20180;-80
2021/08/21 08:39:21;;;;;;;5.13;4.63;;;20.20;99.90;;;;;;5046279;28;20255;-79
2021/08/21 08:41:47;;;;;;;6.67;4.70;;;20.60;99.90;;;;;;5045862;28;20168;-83
2021/08/21 08:44:12;;;;;;;5.20;4.60;;;20.70;99.90;;;;;;5046176;28;20168;-82
2021/08/21 08:46:39;;;;;;;4.87;4.47;;;20.60;99.90;;;;;;5044741;28;20227;-83
2021/08/21 08:49:05;;;;;;;6.67;4.90;;;21.10;99.90;;;;;;5044588;28;20164;-82
2021/08/21 08:51:32;;;;;;;4.83;4.40;;;21.10;99.90;;;;;;5043675;28;20451;-83
2021/08/21 08:53:58;;;;;;;5.57;4.63;;;20.70;99.90;;;;;;5044034;28;20396;-83
2021/08/21 08:56:23;;;;;;;4.03;3.83;;;20.80;99.90;;;;;;5043841;28;20473;-83
2021/08/21 08:58:49;;;;;;;4.83;4.37;;;21.20;99.90;;;;;;5043120;28;20284;-82
2021/08/21 09:01:14;;;;;;;4.17;3.80;;;21.70;99.90;;;;;;5044435;28;20175;-83
2021/08/21 09:03:40;;;;;;;4.77;4.37;;;21.70;99.90;;;;;;5044710;28;20160;-83
2021/08/21 09:06:08;;;;;;;10.43;4.50;;;21.60;99.90;;;;;;5043660;28;20200;-82
2021/08/21 09:08:35;;;;;;;4.20;3.80;;;21.80;99.90;;;;;;5044755;28;20201;-83
2021/08/21 09:11:17;;;;;;;4.10;3.80;;;21.70;99.90;;;;;;5044345;28;20392;-83
2021/08/21 09:13:43;;;;;;;3.80;3.50;;;21.60;99.90;;;;;;5043736;28;20507;-83
2021/08/21 09:16:08;;;;;;;3.83;3.47;;;21.40;99.90;;;;;;5044525;28;20392;-83
2021/08/21 09:18:34;;;;;;;4.20;3.80;;;21.70;99.90;;;;;;5045488;28;20164;-82
2021/08/21 09:21:03;;;;;;;3.80;3.50;;;21.70;99.90;;;;;;5044351;28;20267;-81
2021/08/21 09:23:35;;;;;;;3.80;3.50;;;22.00;99.90;;;;;;5043728;28;20180;-82
2021/08/21 09:26:21;;;;;;;4.20;3.80;;;22.10;99.90;;;;;;5044245;28;20431;-83
2021/08/21 09:28:50;;;;;;;3.13;2.90;;;22.30;99.90;;;;;;5045656;28;20685;-83
2021/08/21 09:31:18;;;;;;;4.20;3.17;;;22.30;99.90;;;;;;5045732;28;20398;-83
2021/08/21 09:34:04;;;;;;;5.30;3.67;;;22.80;99.90;;;;;;5043317;28;20523;-83
2021/08/21 09:36:32;;;;;;;3.80;3.50;;;22.60;99.90;;;;;;5044837;28;20457;-82
2021/08/21 09:39:00;;;;;;;3.70;3.33;;;22.60;99.90;;;;;;5043961;28;20455;-81
2021/08/21 09:41:27;;;;;;;2.80;2.60;;;22.60;99.90;;;;;;5042868;28;20807;-82
2021/08/21 09:44:09;;;;;;;3.30;3.10;;;22.90;99.90;;;;;;5044303;28;20459;-81
2021/08/21 09:46:37;;;;;;;3.67;3.37;;;23.00;99.90;;;;;;5042810;28;20803;-83
2021/08/21 09:49:06;;;;;;;3.80;3.20;;;23.00;99.90;;;;;;5025651;28;20392;-82
2021/08/21 09:51:48;;;;;;;3.13;2.90;;;23.20;99.90;;;;;;5043008;28;20414;-82
2021/08/21 09:54:17;;;;;;;5.30;3.40;;;23.40;99.90;;;;;;5041143;28;20458;-83
2021/08/21 09:56:53;;;;;;;4.17;3.77;;;23.70;99.90;;;;;;5040165;28;20395;-84
2021/08/21 09:59:36;;;;;;;4.30;4.00;;;23.30;99.90;;;;;;5042706;28;20435;-82
2021/08/21 10:02:06;;;;;;;3.40;3.13;;;23.40;99.90;;;;;;5042542;28;20407;-82
2021/08/21 10:04:33;;;;;;;7.50;3.57;;;23.50;99.90;;;;;;5041959;28;20398;-82
2021/08/21 10:07:02;;;;;;;3.63;3.03;;;23.50;99.90;;;;;;5042722;28;20506;-81
2021/08/21 10:09:29;;;;;;;3.83;3.40;;;23.70;99.90;;;;;;5024577;28;20437;-83
2021/08/21 10:11:55;;;;;;;3.97;3.00;;;23.60;99.90;;;;;;5043821;28;20396;-83
2021/08/21 10:14:24;;;;;;;3.00;2.70;;;23.70;99.90;;;;;;5043376;28;20391;-81
2021/08/21 10:16:50;;;;;;;3.10;2.90;;;24.10;99.90;;;;;;5043756;28;20407;-83
2021/08/21 10:19:18;;;;;;;2.83;2.57;;;24.00;99.90;;;;;;5042856;28;20408;-83
2021/08/21 10:21:57;;;;;;;4.00;2.93;;;23.50;99.90;;;;;;5024855;28;20196;-83
2021/08/21 10:25:00;;;;;;;2.90;2.70;;;23.70;99.90;;;;;;5042596;28;20404;-84
2021/08/21 10:27:30;;;;;;;3.10;2.83;;;23.80;99.90;;;;;;5019972;28;20460;-83
2021/08/21 10:30:17;;;;;;;4.30;3.00;;;24.00;99.90;;;;;;5019994;28;20477;-84
2021/08/21 10:32:45;;;;;;;2.77;2.57;;;24.10;99.90;;;;;;5020968;28;20440;-84
2021/08/21 10:35:14;;;;;;;3.13;2.50;;;24.40;99.90;;;;;;4992299;28;20511;-84
2021/08/21 10:37:42;;;;;;;3.23;2.90;;;24.40;99.90;;;;;;5024986;28;20456;-83
2021/08/21 10:40:35;;;;;;;2.63;2.43;;;24.70;99.90;;;;;;5008982;28;20400;-81
2021/08/21 10:43:03;;;;;;;2.37;2.17;;;23.90;99.90;;;;;;5024828;28;20435;-85
2021/08/21 10:45:43;;;;;;;2.60;2.40;;;24.60;99.90;;;;;;5025296;28;20418;-84
2021/08/21 10:48:51;;;;;;;2.10;2.00;;;24.90;99.90;;;;;;5010447;28;20424;-84
2021/08/21 10:51:46;;;;;;;3.10;2.90;;;25.00;99.90;;;;;;4996242;28;20392;-83
2021/08/21 10:54:43;;;;;;;2.33;2.13;;;24.80;99.90;;;;;;5024537;28;20914;-83
2021/08/21 10:57:28;;;;;;;2.17;1.97;;;25.20;99.90;;;;;;5025035;28;20393;-84
2021/08/21 10:59:56;;;;;;;2.10;2.00;;;26.00;99.90;;;;;;5045844;28;20403;-84
2021/08/21 11:02:40;;;;;;;2.43;2.23;;;25.50;99.90;;;;;;5047155;28;20383;-83
2021/08/21 11:05:06;;;;;;;2.40;2.03;;;25.40;99.90;;;;;;5045508;28;20267;-82
2021/08/21 11:07:41;;;;;;;2.20;2.00;;;25.60;99.90;;;;;;5044185;28;20458;-83
2021/08/21 11:10:26;;;;;;;2.00;1.87;;;25.50;99.90;;;;;;5047177;28;20493;-84
2021/08/21 11:12:54;;;;;;;2.33;2.13;;;25.20;99.90;;;;;;5042891;28;20399;-85
2021/08/21 11:15:39;;;;;;;2.70;2.50;;;25.70;99.90;;;;;;5047264;28;20922;-82
2021/08/21 11:18:19;;;;;;;2.50;2.30;;;25.80;99.90;;;;;;4993300;28;20923;-83
2021/08/21 11:20:45;;;;;;;3.00;2.73;;;25.70;99.90;;;;;;5010013;28;20407;-84
2021/08/21 11:23:17;;;;;;;5.97;3.23;;;26.80;99.90;;;;;;5028675;28;20489;-85
2021/08/21 11:25:44;;;;;;;3.63;3.10;;;26.60;99.90;;;;;;5007850;28;20172;-83
2021/08/21 11:28:20;;;;;;;2.30;2.10;;;26.70;99.90;;;;;;5006699;28;20455;-84
2021/08/21 11:31:07;;;;;;;2.80;2.50;;;27.70;99.90;;;;;;5006568;28;20388;-84
2021/08/21 11:33:33;;;;;;;2.30;2.13;;;29.20;99.90;;;;;;5007527;28;20464;-84
2021/08/21 11:36:00;;;;;;;3.15;2.63;;;28.60;99.90;;;;;;5008457;28;20392;-84
2021/08/21 11:38:29;;;;;;;2.38;2.28;;;28.40;99.90;;;;;;5010981;28;20220;-84
2021/08/21 11:40:58;;;;;;;3.65;3.03;;;29.40;98.00;;;;;;5007697;28;20173;-84
2021/08/21 11:43:28;;;;;;;2.72;2.53;;;28.30;98.20;;;;;;5008298;28;20200;-85
2021/08/21 11:45:55;;;;;;;3.22;2.33;;;28.40;99.10;;;;;;5006699;28;20168;-83
2021/08/21 11:48:30;;;;;;;3.33;3.00;;;28.60;98.00;;;;;;5013368;28;20306;-84
2021/08/21 11:50:56;;;;;;;3.70;2.92;;;28.30;98.70;;;;;;5043658;28;20555;-84
2021/08/21 11:53:26;;;;;;;3.67;2.88;;;27.80;97.40;;;;;;5046649;28;20255;-85
2021/08/21 11:55:54;;;;;;;3.42;3.08;;;29.00;96.50;;;;;;5045176;28;20160;-84
2021/08/21 11:58:37;;;;;;;3.85;3.55;;;28.10;97.10;;;;;;5029048;28;20178;-85
2021/08/21 12:01:12;;;;;;;2.95;2.75;;;28.30;97.20;;;;;;5045940;28;20230;-81
2021/08/21 12:06:29;;;;;;;3.33;3.03;;;29.40;95.10;;;;;;5044263;28;20195;-82
2021/08/21 12:09:11;;;;;;;3.20;2.92;;;29.30;95.20;;;;;;5045157;28;20188;-81
2021/08/21 12:11:39;;;;;;;7.35;3.75;;;28.30;95.50;;;;;;5046458;28;20279;-84
2021/08/21 12:14:05;;;;;;;3.67;3.38;;;29.50;96.60;;;;;;5045625;28;20556;-82
2021/08/21 12:16:42;;;;;;;3.17;2.97;;;30.40;95.40;;;;;;5046841;28;20240;-83
2021/08/21 12:19:11;;;;;;;2.88;2.67;;;30.00;95.90;;;;;;5030589;28;20164;-79
2021/08/21 12:21:38;;;;;;;5.40;3.53;;;28.50;96.80;;;;;;5050928;28;20160;-80
2021/08/21 12:24:08;;;;;;;3.13;2.80;;;28.20;97.50;;;;;;5050085;28;20178;-83
2021/08/21 12:26:37;;;;;;;2.70;2.50;;;28.20;99.40;;;;;;5046822;28;20203;-83
2021/08/21 12:29:04;;;;;;;4.50;3.78;;;28.80;97.50;;;;;;5044579;28;20203;-81
2021/08/21 12:31:37;;;;;;;3.83;3.35;;;29.00;96.80;;;;;;5046254;28;20176;-84
2021/08/21 12:34:04;;;;;;;3.97;3.40;;;28.60;96.30;;;;;;5046360;28;20156;-83
2021/08/21 12:36:38;;;;;;;3.20;3.00;;;28.90;96.10;;;;;;5045771;28;20192;-83
2021/08/21 12:39:08;;;;;;;3.30;3.10;;;28.20;96.90;;;;;;5045166;28;20333;-84
2021/08/21 12:41:46;;;;;;;3.25;3.00;;;28.80;96.70;;;;;;5045687;28;20169;-83
2021/08/21 12:44:14;;;;;;;3.08;2.88;;;29.10;96.60;;;;;;5044970;28;20265;-83
2021/08/21 12:46:53;;;;;;;3.40;3.17;;;28.40;96.80;;;;;;5045354;28;20675;-83
2021/08/21 12:49:32;;;;;;;2.75;2.40;;;29.30;96.80;;;;;;5044116;28;20466;-83
2021/08/21 12:52:00;;;;;;;4.10;3.38;;;30.80;95.30;;;;;;5043144;28;20168;-83